TimeEDT,TemperatureF,Dew PointF,Humidity,Sea Level PressureIn,VisibilityMPH,Wind Direction,Wind SpeedMPH,Gust SpeedMPH,PrecipitationIn,Events,Conditions,WindDirDegrees,DateUTC
12:48 AM,17.6,17.6,100,-9999,0.0,NW,42.6,47.2,N/A,Fog-Snow,Light Snow Showers,310,2013-05-14 04:48:00
1:52 AM,15.8,15.8,100,-9999,0.0,NW,36.8,-,N/A,Fog-Snow,Light Snow Showers,310,2013-05-14 05:52:00
2:53 AM,15.8,15.8,100,-9999,0.1,NW,39.1,-,N/A,Fog,Light Freezing Fog,310,2013-05-14 06:53:00
3:56 AM,15.8,12.2,86,-9999,50.0,NW,36.8,-,N/A,,Scattered Clouds,310,2013-05-14 07:56:00
4:51 AM,15.8,15.8,100,-9999,0.1,NW,34.5,-,N/A,Fog,Light Freezing Fog,320,2013-05-14 08:51:00
5:49 AM,15.8,15.8,100,-9999,0.0,NW,43.7,49.5,N/A,Fog,Light Freezing Fog,320,2013-05-14 09:49:00
6:51 AM,15.8,15.8,100,-9999,0.1,NW,46.0,-,N/A,Fog,Light Freezing Fog,320,2013-05-14 10:51:00
7:47 AM,15.8,15.8,100,-9999,0.1,NW,48.3,-,N/A,Fog,Light Freezing Fog,310,2013-05-14 11:47:00
8:52 AM,15.8,15.8,100,-9999,0.1,NW,35.7,54.1,N/A,Fog,Light Freezing Fog,310,2013-05-14 12:52:00
9:50 AM,15.8,14.0,93,-9999,120.0,NW,39.1,43.7,N/A,,Partly Cloudy,310,2013-05-14 13:50:00
10:53 AM,17.6,12.2,79,-9999,120.0,NW,31.1,39.1,N/A,,Scattered Clouds,310,2013-05-14 14:53:00
11:52 AM,19.4,15.8,86,-9999,120.0,NW,36.8,46.0,N/A,,Scattered Clouds,310,2013-05-14 15:52:00
12:56 PM,23.0,15.8,74,-9999,120.0,WNW,32.2,47.2,N/A,,Scattered Clouds,300,2013-05-14 16:56:00
1:52 PM,24.8,17.6,74,-9999,90.0,NW,36.8,46.0,N/A,,Scattered Clouds,310,2013-05-14 17:52:00
2:57 PM,26.6,19.4,74,-9999,90.0,NW,33.4,38.0,N/A,,Mostly Cloudy,310,2013-05-14 18:57:00
3:51 PM,24.8,19.4,80,-9999,90.0,NW,33.4,42.6,N/A,,Mostly Cloudy,320,2013-05-14 19:51:00
4:58 PM,24.8,17.6,74,-9999,90.0,NW,27.6,42.6,N/A,,Mostly Cloudy,310,2013-05-14 20:58:00
5:55 PM,23.0,15.8,74,-9999,90.0,NNW,25.3,31.1,N/A,,Overcast,330,2013-05-14 21:55:00
6:54 PM,23.0,17.6,80,-9999,90.0,NW,24.2,32.2,N/A,,Mostly Cloudy,320,2013-05-14 22:54:00
7:51 PM,23.0,12.2,63,-9999,100.0,NW,24.2,32.2,N/A,,Mostly Cloudy,320,2013-05-14 23:51:00
8:49 PM,23.0,15.8,74,-9999,100.0,NNW,27.6,36.8,N/A,,Mostly Cloudy,340,2013-05-15 00:49:00
9:54 PM,21.2,15.8,80,-9999,100.0,NNW,25.3,34.5,N/A,,Mostly Cloudy,340,2013-05-15 01:54:00
10:50 PM,23.0,15.8,74,-9999,100.0,NNW,25.3,-,N/A,,Scattered Clouds,340,2013-05-15 02:50:00
11:52 PM,21.2,15.8,80,-9999,100.0,NNW,26.5,-,N/A,,Partly Cloudy,340,2013-05-15 03:52:00